Time,TemperatureF,DewpointF,PressureIn,WindDirection,WindDirectionDegrees,WindSpeedMPH,WindSpeedGustMPH,Humidity,HourlyPrecipIn,Conditions,Clouds,dailyrainin,SoftwareType,DateUTC
2013-06-15 00:01:00,52.0,-21.3,29.71,NNE,22,2.0,9.0,4,0.00,,,0.00,Weather View 32 v70,2013-06-15 04:01:00,
2013-06-15 00:31:00,51.0,-46.6,29.72,North,360,3.0,5.0,1,0.00,,,0.00,Weather View 32 v70,2013-06-15 04:31:00,
2013-06-15 00:36:00,51.0,-46.6,29.72,North,360,3.0,5.0,1,0.00,,,0.00,Weather View 32 v70,2013-06-15 04:36:00,
2013-06-15 01:01:00,51.0,-46.6,29.72,North,360,5.0,7.0,1,0.00,,,0.00,Weather View 32 v70,2013-06-15 05:01:00,
2013-06-15 01:30:00,51.0,-46.6,29.72,NNW,337,5.0,7.0,1,0.00,,,0.00,Weather View 32 v70,2013-06-15 05:30:00,
2013-06-15 01:31:00,51.0,-46.6,29.72,NNW,337,5.0,7.0,1,0.00,,,0.00,Weather View 32 v70,2013-06-15 05:31:00,
2013-06-15 02:01:00,52.0,-46.0,29.72,NNW,337,5.0,7.0,1,0.00,,,0.00,Weather View 32 v70,2013-06-15 06:01:00,
2013-06-15 02:30:00,52.0,-46.0,29.72,NNW,337,3.0,8.0,1,0.00,,,0.00,Weather View 32 v70,2013-06-15 06:30:00,
2013-06-15 02:31:00,52.0,-46.0,29.72,NNW,337,3.0,8.0,1,0.00,,,0.00,Weather View 32 v70,2013-06-15 06:31:00,
2013-06-15 03:00:00,51.0,-46.6,29.73,NNW,337,4.0,8.0,1,0.00,,,0.00,Weather View 32 v70,2013-06-15 07:00:00,
2013-06-15 03:01:00,51.0,-46.6,29.73,NNW,337,4.0,8.0,1,0.00,,,0.00,Weather View 32 v70,2013-06-15 07:01:00,
2013-06-15 03:32:00,51.0,-46.6,29.73,NW,315,2.0,7.0,1,0.00,,,0.00,Weather View 32 v70,2013-06-15 07:32:00,
2013-06-15 04:00:00,51.0,-34.7,29.74,NNW,337,6.0,13.0,2,0.00,,,0.00,Weather View 32 v70,2013-06-15 08:00:00,
2013-06-15 04:02:00,51.0,-34.7,29.74,NNW,337,6.0,13.0,2,0.00,,,0.00,Weather View 32 v70,2013-06-15 08:02:00,
2013-06-15 04:30:00,51.0,13.4,29.76,NW,315,6.0,13.0,22,0.00,,,0.00,Weather View 32 v70,2013-06-15 08:30:00,
2013-06-15 05:02:00,51.0,32.0,29.76,WNW,292,6.0,12.0,48,0.00,,,0.00,Weather View 32 v70,2013-06-15 09:02:00,
2013-06-15 05:32:00,51.0,34.0,29.77,WNW,292,6.0,12.0,52,0.00,,,0.00,Weather View 32 v70,2013-06-15 09:32:00,
2013-06-15 06:03:00,52.0,38.9,29.79,WNW,292,7.0,10.0,61,0.00,,,0.00,Weather View 32 v70,2013-06-15 10:03:00,
2013-06-15 06:31:00,54.0,44.0,29.80,WNW,292,8.0,13.0,69,0.00,,,0.00,Weather View 32 v70,2013-06-15 10:31:00,
2013-06-15 07:01:00,57.0,48.4,29.79,NW,315,9.0,13.0,73,0.00,,,0.00,Weather View 32 v70,2013-06-15 11:01:00,
2013-06-15 07:31:00,59.0,53.5,29.80,NW,315,10.0,13.0,82,0.00,,,0.00,Weather View 32 v70,2013-06-15 11:31:00,
2013-06-15 07:37:00,59.0,53.5,29.80,NW,315,10.0,13.0,82,0.00,,,0.00,Weather View 32 v70,2013-06-15 11:37:00,
2013-06-15 08:01:00,61.0,54.8,29.79,North,360,2.0,13.0,80,0.00,,,0.00,Weather View 32 v70,2013-06-15 12:01:00,
2013-06-15 08:32:00,64.0,55.5,29.79,WSW,247,11.0,16.0,74,0.00,,,0.00,Weather View 32 v70,2013-06-15 12:32:00,
2013-06-15 08:38:00,64.0,55.5,29.79,WSW,247,11.0,16.0,74,0.00,,,0.00,Weather View 32 v70,2013-06-15 12:38:00,
2013-06-15 09:01:00,65.0,47.4,29.78,NW,315,19.0,20.0,53,0.00,,,0.00,Weather View 32 v70,2013-06-15 13:01:00,
2013-06-15 09:30:00,66.0,50.8,29.79,North,360,7.0,22.0,58,0.00,,,0.00,Weather View 32 v70,2013-06-15 13:30:00,
2013-06-15 09:32:00,66.0,50.8,29.79,North,360,7.0,22.0,58,0.00,,,0.00,Weather View 32 v70,2013-06-15 13:32:00,
2013-06-15 10:05:00,66.0,47.8,29.78,WSW,247,17.0,22.0,52,0.00,,,0.00,Weather View 32 v70,2013-06-15 14:05:00,
2013-06-15 10:30:00,68.0,48.6,29.78,WNW,292,7.0,22.0,50,0.00,,,0.00,Weather View 32 v70,2013-06-15 14:30:00,
2013-06-15 10:31:00,68.0,48.6,29.78,WNW,292,7.0,22.0,50,0.00,,,0.00,Weather View 32 v70,2013-06-15 14:31:00,
2013-06-15 11:01:00,69.0,47.3,29.77,WNW,292,13.0,24.0,46,0.00,,,0.00,Weather View 32 v70,2013-06-15 15:01:00,
2013-06-15 11:30:00,70.0,43.8,29.77,WNW,292,15.0,24.0,39,0.00,,,0.00,Weather View 32 v70,2013-06-15 15:30:00,
2013-06-15 11:31:00,70.0,43.8,29.77,WNW,292,15.0,24.0,39,0.00,,,0.00,Weather View 32 v70,2013-06-15 15:31:00,
2013-06-15 12:01:00,71.0,41.1,29.76,NNW,337,20.0,25.0,34,0.00,,,0.00,Weather View 32 v70,2013-06-15 16:01:00,
2013-06-15 12:30:00,71.0,41.1,29.76,WNW,292,17.0,25.0,34,0.00,,,0.00,Weather View 32 v70,2013-06-15 16:30:00,
2013-06-15 12:31:00,71.0,41.1,29.76,WNW,292,17.0,25.0,34,0.00,,,0.00,Weather View 32 v70,2013-06-15 16:31:00,
2013-06-15 13:01:00,73.0,43.7,29.75,WSW,247,12.0,23.0,35,0.00,,,0.00,Weather View 32 v70,2013-06-15 17:01:00,
2013-06-15 13:30:00,72.0,42.0,29.75,WNW,292,7.0,23.0,34,0.00,,,0.00,Weather View 32 v70,2013-06-15 17:30:00,
2013-06-15 13:31:00,72.0,42.0,29.75,WNW,292,7.0,23.0,34,0.00,,,0.00,Weather View 32 v70,2013-06-15 17:31:00,
2013-06-15 14:02:00,72.0,42.0,29.75,WNW,292,9.0,23.0,34,0.00,,,0.00,Weather View 32 v70,2013-06-15 18:02:00,
2013-06-15 14:31:00,72.0,40.5,29.75,WNW,292,7.0,23.0,32,0.00,,,0.00,Weather View 32 v70,2013-06-15 18:31:00,
2013-06-15 15:02:00,72.0,42.0,29.74,WSW,247,11.0,23.0,34,0.00,,,0.00,Weather View 32 v70,2013-06-15 19:02:00,
2013-06-15 15:31:00,74.0,43.0,29.73,NW,315,9.0,20.0,33,0.00,,,0.00,Weather View 32 v70,2013-06-15 19:31:00,
2013-06-15 16:04:00,72.0,44.9,29.73,WSW,247,3.0,19.0,38,0.00,,,0.00,Weather View 32 v70,2013-06-15 20:04:00,
2013-06-15 16:33:00,74.0,42.2,29.72,West,270,10.0,22.0,32,0.00,,,0.00,Weather View 32 v70,2013-06-15 20:33:00,
2013-06-15 17:01:00,73.0,42.1,29.72,WSW,247,12.0,23.0,33,0.00,,,0.00,Weather View 32 v70,2013-06-15 21:01:00,
2013-06-15 17:31:00,73.0,43.7,29.72,West,270,10.0,23.0,35,0.00,,,0.00,Weather View 32 v70,2013-06-15 21:31:00,
2013-06-15 18:02:00,73.0,42.9,29.73,West,270,13.0,20.0,34,0.00,,,0.00,Weather View 32 v70,2013-06-15 22:02:00,
2013-06-15 18:31:00,72.0,42.8,29.74,West,270,7.0,19.0,35,0.00,,,0.00,Weather View 32 v70,2013-06-15 22:31:00,
2013-06-15 19:01:00,72.0,44.2,29.74,West,270,1.0,19.0,37,0.00,,,0.00,Weather View 32 v70,2013-06-15 23:01:00,
2013-06-15 19:34:00,71.0,44.7,29.75,WNW,292,3.0,18.0,39,0.00,,,0.00,Weather View 32 v70,2013-06-15 23:34:00,
2013-06-15 20:00:00,68.0,45.8,29.77,NW,315,1.0,18.0,45,0.00,,,0.00,Weather View 32 v70,2013-06-16 00:00:00,
2013-06-15 20:06:00,68.0,45.8,29.77,NW,315,1.0,18.0,45,0.00,,,0.00,Weather View 32 v70,2013-06-16 00:06:00,
2013-06-15 20:31:00,64.0,48.4,29.78,NW,315,3.0,8.0,57,0.00,,,0.00,Weather View 32 v70,2013-06-16 00:31:00,
2013-06-15 21:02:00,60.0,54.5,29.82,NW,315,3.0,6.0,82,0.00,,,0.00,Weather View 32 v70,2013-06-16 01:02:00,
2013-06-15 21:08:00,60.0,54.5,29.82,NW,315,3.0,6.0,82,0.00,,,0.00,Weather View 32 v70,2013-06-16 01:08:00,
2013-06-15 21:34:00,59.0,57.0,29.83,NW,315,5.0,6.0,93,0.00,,,0.00,Weather View 32 v70,2013-06-16 01:34:00,
2013-06-15 22:00:00,57.0,53.8,29.84,NW,315,4.0,6.0,89,0.00,,,0.00,Weather View 32 v70,2013-06-16 02:00:00,
2013-06-15 22:01:00,57.0,53.8,29.84,NW,315,4.0,6.0,89,0.00,,,0.00,Weather View 32 v70,2013-06-16 02:01:00,
2013-06-15 22:31:00,59.0,54.2,29.84,WNW,292,7.0,8.0,84,0.00,,,0.00,Weather View 32 v70,2013-06-16 02:31:00,
2013-06-15 23:00:00,60.0,49.0,29.83,WNW,292,8.0,10.0,67,0.00,,,0.00,Weather View 32 v70,2013-06-16 03:00:00,
2013-06-15 23:05:00,60.0,49.0,29.83,WNW,292,8.0,10.0,67,0.00,,,0.00,Weather View 32 v70,2013-06-16 03:05:00,
2013-06-15 23:31:00,60.0,49.8,29.84,NNW,337,5.0,11.0,69,0.00,,,0.00,Weather View 32 v70,2013-06-16 03:31:00,